createdAt,value
2019-04-05T00:00:55.732Z,67.92
2019-04-05T00:03:25.400Z,67.81
2019-04-05T00:05:55.057Z,67.25
2019-04-05T00:08:24.708Z,67.78
2019-04-05T00:10:54.371Z,67.76
2019-04-05T00:13:24.020Z,67.98
2019-04-05T00:15:53.682Z,67.31
2019-04-05T00:18:23.342Z,67.94
2019-04-05T00:20:53.020Z,69.09
2019-04-05T00:23:22.747Z,68.85
2019-04-05T00:25:52.392Z,68.58
2019-04-05T00:28:22.046Z,69.08
2019-04-05T00:30:51.703Z,67.48
2019-04-05T00:33:21.369Z,68.09
2019-04-05T00:35:51.159Z,68.86
2019-04-05T00:38:20.828Z,69.09
2019-04-05T00:40:50.489Z,68.26
2019-04-05T00:43:20.159Z,67.34
2019-04-05T00:45:49.803Z,67.13
2019-04-05T00:48:19.795Z,67.62
2019-04-05T00:50:49.520Z,67.50
2019-04-05T00:53:19.241Z,67.38
2019-04-05T00:55:49.365Z,67.47
2019-04-05T00:58:19.100Z,66.65
2019-04-05T01:00:50.289Z,67.47
2019-04-05T01:03:19.943Z,68.11
2019-04-05T01:05:51.328Z,68.37
2019-04-05T01:08:21.045Z,66.52
2019-04-05T01:10:50.704Z,66.47
2019-04-05T01:13:20.353Z,66.53
2019-04-05T01:15:50.571Z,66.74
2019-04-05T01:18:20.557Z,65.98
2019-04-05T01:20:54.007Z,67.32
2019-04-05T01:23:24.724Z,67.20
2019-04-05T01:25:57.837Z,66.83
2019-04-05T01:28:28.583Z,66.33
2019-04-05T01:30:58.380Z,65.72
2019-04-05T01:33:28.167Z,66.17
2019-04-05T01:35:57.825Z,65.78
2019-04-05T01:38:27.488Z,65.54
2019-04-05T01:40:59.521Z,65.94
2019-04-05T01:43:29.552Z,65.73
2019-04-05T01:46:00.642Z,65.74
2019-04-05T01:48:30.305Z,66.30
2019-04-05T01:50:59.951Z,67.36
2019-04-05T01:53:29.918Z,67.09
2019-04-05T01:55:59.637Z,66.61
2019-04-05T01:58:29.299Z,66.88
2019-04-05T02:00:59.018Z,68.10
2019-04-05T02:03:30.483Z,68.26
2019-04-05T02:06:00.264Z,67.88
2019-04-05T02:08:31.690Z,66.62
2019-04-05T02:11:01.439Z,66.67
2019-04-05T02:13:31.340Z,67.28
2019-04-05T02:16:06.669Z,67.67
2019-04-05T02:18:32.371Z,67.86
2019-04-05T02:21:02.026Z,67.41
2019-04-05T02:23:31.941Z,68.01
2019-04-05T02:26:01.597Z,68.78
2019-04-05T02:28:31.245Z,68.13
2019-04-05T02:31:00.925Z,68.14
2019-04-05T02:33:30.563Z,67.37
2019-04-05T02:36:00.368Z,66.75
2019-04-05T02:38:30.021Z,66.30
2019-04-05T02:41:02.846Z,66.17
2019-04-05T02:43:36.131Z,66.83
2019-04-05T02:46:22.184Z,66.38
2019-04-05T02:48:42.385Z,67.59
2019-04-05T02:51:17.602Z,66.83
2019-04-05T02:53:48.262Z,66.52
2019-04-05T02:56:20.071Z,66.50
2019-04-05T02:58:53.318Z,66.33
2019-04-05T03:04:25.010Z,67.27
2019-04-05T03:06:54.838Z,67.25
2019-04-05T03:09:25.008Z,66.99
2019-04-05T03:11:56.057Z,66.75
2019-04-05T03:14:27.615Z,66.83
2019-04-05T03:16:57.921Z,66.96
2019-04-05T03:19:31.750Z,67.15
2019-04-05T03:22:05.765Z,67.20
2019-04-05T03:24:39.482Z,67.79
2019-04-05T03:27:13.441Z,67.69
2019-04-05T03:29:44.393Z,67.76
2019-04-05T03:32:14.748Z,68.19
2019-04-05T03:34:45.572Z,67.54
2019-04-05T03:37:16.010Z,67.52
2019-04-05T03:39:46.117Z,67.49
2019-04-05T03:42:16.702Z,68.29
2019-04-05T03:44:47.531Z,67.68
2019-04-05T03:47:17.444Z,68.72
2019-04-05T03:49:47.353Z,68.57
2019-04-05T03:52:17.631Z,68.35
2019-04-05T03:54:47.500Z,68.48
2019-04-05T03:57:17.218Z,69.63
2019-04-05T03:59:46.923Z,70.46
2019-04-05T04:02:16.900Z,70.09
2019-04-05T04:04:46.612Z,70.44
2019-04-05T04:07:16.515Z,70.10
2019-04-05T04:09:46.225Z,70.64
2019-04-05T04:12:16.220Z,70.33
2019-04-05T04:14:45.927Z,70.63
2019-04-05T04:17:15.932Z,70.18
2019-04-05T04:19:46.104Z,70.46
2019-04-05T04:22:25.466Z,69.94
2019-04-05T04:24:55.729Z,69.96
2019-04-05T04:27:26.182Z,69.66
2019-04-05T04:30:00.215Z,69.85
2019-04-05T04:32:29.186Z,69.06
2019-04-05T04:34:59.085Z,69.12
2019-04-05T04:37:29.174Z,69.15
2019-04-05T04:39:58.911Z,69.19
2019-04-05T04:42:29.239Z,68.89
2019-04-05T04:45:11.445Z,68.60
2019-04-05T04:47:31.270Z,68.29
2019-04-05T04:50:01.728Z,68.10
2019-04-05T04:52:33.400Z,67.74
2019-04-05T04:55:03.489Z,68.00
2019-04-05T04:57:33.362Z,67.77
2019-04-05T05:00:04.322Z,67.75
2019-04-05T05:02:34.902Z,67.60
2019-04-05T05:05:07.360Z,67.30
2019-04-05T05:07:38.529Z,67.89
2019-04-05T05:10:09.393Z,67.77
2019-04-05T05:12:39.666Z,67.47
2019-04-05T05:15:11.226Z,67.17
2019-04-05T05:17:41.457Z,67.12
2019-04-05T05:20:11.926Z,67.79
2019-04-05T05:22:42.015Z,68.11
2019-04-05T05:25:12.576Z,68.77
2019-04-05T05:27:42.529Z,68.46
2019-04-05T05:30:12.902Z,68.08
2019-04-05T05:32:43.077Z,70.26
2019-04-05T05:35:13.633Z,71.06
2019-04-05T05:37:43.823Z,70.17
2019-04-05T05:40:14.373Z,69.25
2019-04-05T05:42:44.095Z,69.70
2019-04-05T05:45:14.325Z,70.58
2019-04-05T05:47:51.879Z,70.73
2019-04-05T05:50:15.754Z,69.07
2019-04-05T05:52:45.406Z,68.83
2019-04-05T05:55:15.304Z,69.11
2019-04-05T05:57:45.036Z,70.36
2019-04-05T06:00:18.172Z,69.48
2019-04-05T06:02:48.560Z,68.55
2019-04-05T06:05:19.569Z,69.54
2019-04-05T06:07:49.165Z,68.84
2019-04-05T06:10:18.953Z,68.38
2019-04-05T06:12:48.684Z,67.68
2019-04-05T06:15:18.474Z,68.14
2019-04-05T06:17:48.193Z,68.67
2019-04-05T06:20:19.391Z,68.28
2019-04-05T06:22:49.057Z,68.87
2019-04-05T06:25:19.740Z,68.64
2019-04-05T06:27:49.452Z,68.96
2019-04-05T06:30:19.318Z,68.27
2019-04-05T06:32:48.962Z,68.57
2019-04-05T06:35:18.622Z,68.48
2019-04-05T06:37:49.492Z,68.50
2019-04-05T06:40:19.207Z,68.38
2019-04-05T06:42:50.080Z,68.16
2019-04-05T06:45:19.717Z,68.71
2019-04-05T06:47:49.384Z,68.82
2019-04-05T06:50:19.032Z,68.60
2019-04-05T06:52:48.692Z,67.90
2019-04-05T06:55:18.425Z,67.74
2019-04-05T06:57:48.157Z,66.90
2019-04-05T07:00:21.017Z,66.61
2019-04-05T07:02:50.680Z,66.15
2019-04-05T07:05:21.001Z,66.30
2019-04-05T07:07:50.927Z,65.42
2019-04-05T07:10:20.580Z,64.69
2019-04-05T07:12:50.278Z,64.70
2019-04-05T07:15:19.969Z,64.47
2019-04-05T07:17:49.847Z,64.85
2019-04-05T07:20:19.972Z,64.44
2019-04-05T07:22:50.857Z,63.55
2019-04-05T07:25:20.524Z,63.50
2019-04-05T07:27:50.193Z,64.45
2019-04-05T07:30:20.208Z,65.15
2019-04-05T07:32:49.856Z,64.86
2019-04-05T07:35:32.854Z,63.85
2019-04-05T07:37:52.417Z,64.31
2019-04-05T07:40:22.062Z,65.11
2019-04-05T07:42:51.693Z,64.43
2019-04-05T07:47:20.222Z,63.13
2019-04-05T07:49:49.795Z,63.92
2019-04-05T07:52:19.358Z,63.65
2019-04-05T07:54:48.934Z,64.21
2019-04-05T07:57:21.314Z,63.99
2019-04-05T07:59:50.894Z,63.60
2019-04-05T08:02:20.474Z,63.38
2019-04-05T08:04:50.037Z,63.94
2019-04-05T08:07:22.506Z,62.92
2019-04-05T08:09:52.438Z,62.98
2019-04-05T08:12:22.329Z,62.20
2019-04-05T08:14:53.769Z,62.70
2019-04-05T08:17:23.321Z,62.52
2019-04-05T08:19:52.896Z,62.73
2019-04-05T08:22:22.472Z,63.08
2019-04-05T08:24:52.043Z,62.68
2019-04-05T08:27:21.622Z,62.85
2019-04-05T08:29:51.185Z,61.92
2019-04-05T08:32:20.763Z,63.27
2019-04-05T08:34:50.338Z,64.29
2019-04-05T08:37:19.917Z,64.18
2019-04-05T08:39:49.493Z,63.73
2019-04-05T08:42:19.062Z,63.61
2019-04-05T08:44:48.657Z,63.32
2019-04-05T08:47:18.226Z,63.64
2019-04-05T08:49:47.829Z,63.85
2019-04-05T08:52:17.588Z,64.13
2019-04-05T08:54:47.154Z,64.23
2019-04-05T08:57:16.829Z,65.08
2019-04-05T08:59:46.475Z,63.93
2019-04-05T09:02:16.100Z,62.95
2019-04-05T09:04:45.680Z,62.33
2019-04-05T09:07:15.470Z,63.79
2019-04-05T09:09:45.032Z,62.91
2019-04-05T09:12:14.607Z,61.97
2019-04-05T09:14:45.315Z,62.81
2019-04-05T09:17:14.963Z,62.35
2019-04-05T09:19:44.539Z,61.52
2019-04-05T09:22:14.109Z,61.85
2019-04-05T09:24:43.822Z,62.85
2019-04-05T09:27:13.412Z,63.15
2019-04-05T09:29:42.983Z,62.73
2019-04-05T09:32:14.295Z,62.00
2019-04-05T09:34:43.805Z,61.48
2019-04-05T09:37:13.387Z,62.31
2019-04-05T09:39:42.976Z,62.17
2019-04-05T09:42:12.534Z,60.99
2019-04-05T09:44:42.097Z,60.72
2019-04-05T09:47:11.688Z,60.99
2019-04-05T09:49:41.275Z,60.74
2019-04-05T09:52:10.892Z,59.81
2019-04-05T09:54:42.066Z,59.91
2019-04-05T09:57:11.631Z,60.62
2019-04-05T09:59:41.215Z,59.83
2019-04-05T10:02:10.781Z,58.79
2019-04-05T10:04:40.368Z,58.93
2019-04-05T10:07:10.003Z,58.93
2019-04-05T10:09:39.627Z,60.80
2019-04-05T10:12:10.203Z,61.24
2019-04-05T10:14:39.793Z,59.81
2019-04-05T10:17:09.363Z,60.35
2019-04-05T10:19:49.254Z,59.92
2019-04-05T10:22:11.772Z,61.41
2019-04-05T10:24:41.337Z,62.54
2019-04-05T10:27:10.923Z,63.59
2019-04-05T10:29:40.493Z,64.27
2019-04-05T10:32:10.191Z,63.62
2019-04-05T10:34:39.770Z,63.32
2019-04-05T10:37:09.367Z,62.58
2019-04-05T10:39:38.930Z,62.93
2019-04-05T10:42:30.678Z,62.58
2019-04-05T10:45:00.472Z,61.45
2019-04-05T10:47:30.378Z,61.93
2019-04-05T10:50:03.406Z,61.65
2019-04-05T10:52:31.250Z,60.84
2019-04-05T10:55:00.826Z,61.45
2019-04-05T10:57:30.388Z,62.52
2019-04-05T10:59:59.975Z,62.80
2019-04-05T11:02:29.650Z,62.67
2019-04-05T11:04:59.252Z,61.48
2019-04-05T11:07:28.851Z,60.64
2019-04-05T11:09:58.425Z,61.34
2019-04-05T11:12:27.988Z,62.68
2019-04-05T11:14:57.573Z,63.05
2019-04-05T11:17:27.149Z,61.94
2019-04-05T11:19:56.749Z,61.39
2019-04-05T11:22:26.326Z,61.45
2019-04-05T11:24:55.900Z,59.96
2019-04-05T11:27:26.486Z,59.86
2019-04-05T11:29:57.782Z,60.06
2019-04-05T11:32:27.357Z,60.89
2019-04-05T11:34:56.937Z,61.11
2019-04-05T11:37:27.252Z,61.29
2019-04-05T11:39:57.770Z,61.64
2019-04-05T11:42:29.194Z,60.35
2019-04-05T11:45:02.175Z,60.31
2019-04-05T11:47:33.266Z,60.15
2019-04-05T11:50:06.085Z,60.32
2019-04-05T11:52:35.908Z,60.96
2019-04-05T11:55:07.682Z,61.74
2019-04-05T11:57:37.265Z,60.62
2019-04-05T12:00:16.600Z,61.29
2019-04-05T12:02:47.850Z,61.63
2019-04-05T12:05:17.993Z,61.06
2019-04-05T12:07:47.569Z,60.68
2019-04-05T12:10:19.430Z,60.53
2019-04-05T12:12:48.751Z,61.68
2019-04-05T12:15:18.558Z,61.51
2019-04-05T12:17:48.130Z,61.25
2019-04-05T12:20:18.766Z,61.30
2019-04-05T12:22:52.350Z,61.90
2019-04-05T12:25:20.743Z,61.42
2019-04-05T12:27:50.322Z,61.71
2019-04-05T12:30:24.926Z,61.83
2019-04-05T12:32:54.494Z,61.40
2019-04-05T12:35:24.070Z,60.77
2019-04-05T12:37:55.683Z,60.17
2019-04-05T12:40:26.479Z,60.80
2019-04-05T12:42:57.859Z,62.05
2019-04-05T12:45:27.424Z,63.15
2019-04-05T12:47:59.130Z,62.65
2019-04-05T12:50:28.364Z,61.99
2019-04-05T12:52:57.987Z,62.48
2019-04-05T12:55:27.592Z,61.01
2019-04-05T12:57:57.178Z,60.54
2019-04-05T13:00:27.087Z,60.57
2019-04-05T13:02:57.287Z,61.48
2019-04-05T13:05:27.052Z,61.38
2019-04-05T13:07:57.972Z,61.46
2019-04-05T13:10:30.317Z,61.70
2019-04-05T13:12:58.999Z,62.24
2019-04-05T13:15:29.595Z,62.17
2019-04-05T13:18:01.185Z,62.27
2019-04-05T13:20:31.026Z,61.85
2019-04-05T13:23:04.441Z,61.65
2019-04-05T13:25:32.043Z,62.55
2019-04-05T13:28:12.819Z,62.29
2019-04-05T13:30:33.231Z,61.52
2019-04-05T13:33:02.889Z,61.59
2019-04-05T13:35:32.470Z,61.66
2019-04-05T13:38:02.039Z,61.77
2019-04-05T13:40:31.635Z,62.40
2019-04-05T13:43:02.036Z,62.52
2019-04-05T13:45:33.342Z,62.35
2019-04-05T13:48:02.928Z,62.21
2019-04-05T13:50:32.511Z,60.96
2019-04-05T13:53:02.096Z,60.54
2019-04-05T13:55:32.997Z,61.33
2019-04-05T13:58:02.576Z,61.44
2019-04-05T14:00:32.379Z,61.14
2019-04-05T14:03:01.955Z,61.13
2019-04-05T14:05:31.530Z,60.93
2019-04-05T14:08:09.755Z,60.45
2019-04-05T14:10:32.394Z,60.29
2019-04-05T14:13:01.964Z,60.21
2019-04-05T14:15:31.695Z,61.15
2019-04-05T14:18:01.282Z,61.53
2019-04-05T14:20:30.871Z,61.92
2019-04-05T14:23:00.429Z,61.59
2019-04-05T14:25:30.451Z,62.15
2019-04-05T14:28:00.081Z,61.43
2019-04-05T14:30:32.473Z,61.55
2019-04-05T14:33:01.038Z,62.47
2019-04-05T14:35:31.169Z,62.06
2019-04-05T14:38:00.750Z,62.11
2019-04-05T14:40:32.895Z,62.20
2019-04-05T14:43:01.614Z,62.42
2019-04-05T14:45:32.330Z,62.17
2019-04-05T14:48:01.979Z,62.17
2019-04-05T14:50:31.686Z,62.72
2019-04-05T14:53:02.006Z,62.88
2019-04-05T14:55:31.658Z,62.50
2019-04-05T14:58:01.247Z,62.39
2019-04-05T15:00:33.749Z,62.42
2019-04-05T15:03:03.328Z,63.01
2019-04-05T15:05:32.908Z,62.70
2019-04-05T15:08:02.543Z,63.36
2019-04-05T15:10:32.138Z,63.52
2019-04-05T15:13:01.702Z,63.44
2019-04-05T15:15:31.343Z,63.08
2019-04-05T15:18:00.909Z,63.02
2019-04-05T15:20:30.576Z,62.98
2019-04-05T15:23:00.144Z,63.19
2019-04-05T15:25:32.185Z,64.32
2019-04-05T15:28:01.766Z,64.78
2019-04-05T15:30:31.350Z,66.07
2019-04-05T15:33:02.562Z,65.35
2019-04-05T15:35:32.141Z,65.25
2019-04-05T15:38:02.261Z,65.02
2019-04-05T15:40:31.996Z,65.69
2019-04-05T15:43:01.745Z,64.06
2019-04-05T15:45:31.310Z,65.47
2019-04-05T15:48:00.883Z,66.62
2019-04-05T15:50:30.466Z,66.35
2019-04-05T15:53:02.316Z,65.01
2019-04-05T15:55:33.317Z,65.46
2019-04-05T15:58:03.899Z,65.72
2019-04-05T16:00:44.112Z,65.22
2019-04-05T16:03:15.122Z,65.19
2019-04-05T16:05:46.402Z,65.96
2019-04-05T16:08:18.762Z,65.68
2019-04-05T16:10:48.884Z,66.13
2019-04-05T16:13:18.447Z,67.93
2019-04-05T16:15:48.030Z,67.25
2019-04-05T16:18:17.671Z,65.64
2019-04-05T16:20:47.254Z,66.62
2019-04-05T16:23:16.821Z,67.52
2019-04-05T16:25:46.427Z,67.79
2019-04-05T16:28:15.998Z,66.93
2019-04-05T16:30:45.575Z,67.53
2019-04-05T16:33:15.150Z,67.54
2019-04-05T16:35:44.732Z,67.83
2019-04-05T16:38:14.313Z,66.92
2019-04-05T16:40:44.157Z,67.66
2019-04-05T16:43:13.738Z,67.24
2019-04-05T16:45:43.370Z,67.14
2019-04-05T16:48:12.956Z,66.89
2019-04-05T16:50:42.570Z,66.45
2019-04-05T16:53:12.178Z,67.69
2019-04-05T16:55:41.909Z,66.84
2019-04-05T16:58:11.478Z,66.72
2019-04-05T17:00:41.054Z,66.55
2019-04-05T17:03:12.172Z,66.52
2019-04-05T17:05:41.742Z,67.65
2019-04-05T17:08:11.341Z,68.39
2019-04-05T17:10:40.922Z,69.84
2019-04-05T17:13:10.498Z,70.39
2019-04-05T17:15:40.136Z,70.08
2019-04-05T17:18:09.742Z,70.73
2019-04-05T17:20:39.307Z,71.28
2019-04-05T17:23:10.406Z,71.13
2019-04-05T17:25:39.986Z,70.86
2019-04-05T17:28:09.548Z,71.73
2019-04-05T17:30:39.108Z,72.08
2019-04-05T17:33:08.776Z,71.69
2019-04-05T17:35:38.405Z,72.48
2019-04-05T17:38:09.016Z,73.28
2019-04-05T17:40:38.575Z,73.13
2019-04-05T17:43:08.228Z,72.15
2019-04-05T17:45:37.863Z,71.22
2019-04-05T17:48:07.507Z,71.40
2019-04-05T17:50:37.353Z,71.70
2019-04-05T17:53:12.841Z,72.84
2019-04-05T17:55:38.365Z,73.49
2019-04-05T17:58:09.802Z,73.74
2019-04-05T18:00:39.426Z,73.96
2019-04-05T18:03:09.009Z,72.79
2019-04-05T18:05:38.588Z,71.97
2019-04-05T18:08:09.670Z,72.94
2019-04-05T18:10:39.234Z,72.43
2019-04-05T18:13:08.854Z,71.57
2019-04-05T18:15:46.680Z,71.53
2019-04-05T18:18:09.802Z,72.96
2019-04-05T18:20:39.434Z,73.94
2019-04-05T18:23:09.011Z,73.90
2019-04-05T18:25:38.614Z,74.31
2019-04-05T18:28:08.207Z,74.36
2019-04-05T18:30:37.762Z,74.37
2019-04-05T18:33:07.326Z,74.72
2019-04-05T18:35:36.889Z,74.89
2019-04-05T18:38:06.454Z,74.53
2019-04-05T18:40:40.213Z,74.58
2019-04-05T18:43:07.410Z,74.46
2019-04-05T18:45:36.977Z,74.00
2019-04-05T18:48:06.605Z,74.26
2019-04-05T18:50:37.708Z,74.05
2019-04-05T18:53:07.267Z,74.12
2019-04-05T18:55:37.415Z,73.45
2019-04-05T18:58:08.212Z,72.82
2019-04-05T19:00:37.780Z,72.23
2019-04-05T19:03:07.347Z,71.93
2019-04-05T19:05:36.934Z,72.31
2019-04-05T19:08:06.834Z,73.61
2019-04-05T19:10:37.559Z,74.09
2019-04-05T19:13:07.321Z,73.93
2019-04-05T19:15:36.907Z,73.87
2019-04-05T19:18:06.480Z,73.71
2019-04-05T19:20:36.985Z,73.54
2019-04-05T19:23:06.670Z,73.21
2019-04-05T19:25:36.299Z,72.67
2019-04-05T19:28:05.884Z,72.14
2019-04-05T19:48:32.026Z,72.22
2019-04-05T19:50:47.465Z,72.16
2019-04-05T19:53:17.300Z,72.30
2019-04-05T19:55:46.955Z,72.28
2019-04-05T19:58:18.607Z,70.97
2019-04-05T20:00:48.258Z,71.51
2019-04-05T20:03:17.843Z,71.55
2019-04-05T20:05:47.476Z,71.16
2019-04-05T20:08:17.633Z,71.48
2019-04-05T20:10:47.201Z,72.17
2019-04-05T20:13:16.840Z,73.10
2019-04-05T20:15:46.462Z,71.93
2019-04-05T20:18:15.998Z,72.77
2019-04-05T20:20:45.565Z,73.19
2019-04-05T20:23:15.165Z,73.15
2019-04-05T20:25:44.733Z,73.38
2019-04-05T20:28:14.313Z,72.38
2019-04-05T20:30:43.891Z,72.13
2019-04-05T20:33:13.467Z,71.80
2019-04-05T20:35:43.071Z,71.64
2019-04-05T20:38:14.154Z,71.66
2019-04-05T20:40:43.735Z,72.42
2019-04-05T20:43:13.366Z,74.36
2019-04-05T20:45:42.957Z,72.12
2019-04-05T20:48:12.538Z,73.04
2019-04-05T20:50:42.110Z,72.80
2019-04-05T20:53:11.667Z,70.62
2019-04-05T20:55:42.557Z,69.82
2019-04-05T20:58:12.108Z,70.83
2019-04-05T21:00:41.674Z,72.35
2019-04-05T21:03:11.510Z,73.08
2019-04-05T21:05:41.053Z,73.01
2019-04-05T21:08:10.608Z,72.56
2019-04-05T21:10:41.360Z,72.31
2019-04-05T21:13:10.941Z,72.83
2019-04-05T21:15:40.507Z,73.22
2019-04-05T21:18:10.083Z,73.11
2019-04-05T21:20:39.636Z,72.77
2019-04-05T21:23:09.211Z,73.01
2019-04-05T21:25:38.774Z,73.38
2019-04-05T21:28:08.364Z,73.47
2019-04-05T21:30:37.928Z,73.82
2019-04-05T21:33:07.488Z,73.61
2019-04-05T21:35:37.141Z,74.00
2019-04-05T21:38:08.796Z,74.03
2019-04-05T21:40:38.437Z,74.09
2019-04-05T21:43:08.026Z,73.72
2019-04-05T21:45:37.650Z,73.11
2019-04-05T21:48:08.258Z,73.35
2019-04-05T21:50:37.822Z,73.27
2019-04-05T21:53:08.704Z,73.46
2019-04-05T21:55:38.299Z,72.91
2019-04-05T21:58:07.933Z,72.11
2019-04-05T22:00:40.847Z,71.39
2019-04-05T22:03:10.415Z,71.02
2019-04-05T22:05:40.009Z,70.82
2019-04-05T22:08:09.585Z,70.83
2019-04-05T22:10:40.651Z,70.62
2019-04-05T22:13:11.755Z,70.45
2019-04-05T22:15:43.686Z,70.91
2019-04-05T22:18:13.318Z,71.90
2019-04-05T22:20:42.907Z,71.85
2019-04-05T22:23:12.470Z,71.68
2019-04-05T22:25:42.048Z,71.47
2019-04-05T22:28:11.630Z,71.94
2019-04-05T22:30:41.219Z,70.87
2019-04-05T22:33:10.800Z,70.80
2019-04-05T22:35:40.354Z,71.48
2019-04-05T22:38:09.916Z,71.50
2019-04-05T22:40:39.491Z,71.74
2019-04-05T22:43:09.066Z,71.46
2019-04-05T22:45:38.640Z,71.46
2019-04-05T22:48:08.218Z,71.35
2019-04-05T22:50:37.794Z,71.27
2019-04-05T22:53:07.363Z,71.17
2019-04-05T22:55:36.936Z,71.27
2019-04-05T22:58:06.495Z,70.89
2019-04-05T23:00:36.126Z,71.13
2019-04-05T23:03:07.016Z,71.49
2019-04-05T23:05:37.846Z,71.58
2019-04-05T23:08:07.403Z,72.00
2019-04-05T23:10:39.131Z,72.72
2019-04-05T23:13:08.698Z,72.75
2019-04-05T23:15:38.263Z,73.27
2019-04-05T23:18:07.894Z,73.15
2019-04-05T23:20:37.460Z,73.28
2019-04-05T23:23:07.019Z,72.87
2019-04-05T23:25:36.613Z,73.06
2019-04-05T23:28:06.243Z,73.74
2019-04-05T23:30:35.800Z,74.00
2019-04-05T23:33:05.368Z,74.09
2019-04-05T23:35:34.942Z,73.70
2019-04-05T23:38:04.489Z,73.36
2019-04-05T23:40:34.053Z,73.39
2019-04-05T23:43:03.613Z,73.66
2019-04-05T23:45:33.242Z,73.57
2019-04-05T23:48:04.162Z,73.48
2019-04-05T23:50:33.725Z,72.94
2019-04-05T23:53:03.355Z,72.61
2019-04-05T23:55:33.808Z,73.29
2019-04-05T23:58:03.464Z,73.10
